createdAt,value
2023-05-15T00:01:26.270Z,67.54
2023-05-15T00:03:55.121Z,67.36
2023-05-15T00:06:23.362Z,67.60
2023-05-15T00:08:51.699Z,67.62
2023-05-15T00:11:20.168Z,67.10
2023-05-15T00:13:49.529Z,66.95
2023-05-15T00:16:17.651Z,67.56
2023-05-15T00:18:45.873Z,67.23
2023-05-15T00:21:13.999Z,67.33
2023-05-15T00:23:41.988Z,67.31
2023-05-15T00:26:10.196Z,66.79
2023-05-15T00:28:38.283Z,66.94
2023-05-15T00:31:08.622Z,66.96
2023-05-15T00:33:36.650Z,67.15
2023-05-15T00:36:04.903Z,67.16
2023-05-15T00:38:33.584Z,67.37
2023-05-15T00:41:02.703Z,67.34
2023-05-15T00:43:31.219Z,67.05
2023-05-15T00:46:00.356Z,67.08
2023-05-15T00:48:31.015Z,67.07
2023-05-15T00:51:00.108Z,67.10
2023-05-15T00:53:28.986Z,67.33
2023-05-15T00:55:59.723Z,67.30
2023-05-15T00:58:29.063Z,67.57
2023-05-15T01:00:57.237Z,67.16
2023-05-15T01:03:25.907Z,67.32
2023-05-15T01:05:55.476Z,67.53
2023-05-15T01:08:33.571Z,67.21
2023-05-15T01:11:03.771Z,67.30
2023-05-15T01:13:31.865Z,66.90
2023-05-15T01:16:00.341Z,67.32
2023-05-15T01:18:32.406Z,67.07
2023-05-15T01:21:35.406Z,67.31
2023-05-15T01:24:19.433Z,67.64
2023-05-15T01:27:16.195Z,67.70
2023-05-15T01:29:52.348Z,67.86
2023-05-15T01:32:25.283Z,67.84
2023-05-15T01:35:05.841Z,68.07
2023-05-15T01:37:36.491Z,68.33
2023-05-15T01:40:10.032Z,67.73
2023-05-15T01:42:45.242Z,68.33
2023-05-15T01:45:14.704Z,68.11
2023-05-15T01:47:47.303Z,68.31
2023-05-15T01:50:19.866Z,67.96
2023-05-15T01:52:52.258Z,68.45
2023-05-15T01:55:23.617Z,69.22
2023-05-15T01:57:54.422Z,68.83
2023-05-15T02:00:23.333Z,68.99
2023-05-15T02:02:51.800Z,69.17
2023-05-15T02:05:21.018Z,69.11
2023-05-15T02:07:50.147Z,68.91
2023-05-15T02:10:19.529Z,68.84
2023-05-15T02:12:49.444Z,68.47
2023-05-15T02:15:21.823Z,68.60
2023-05-15T02:17:50.099Z,68.41
2023-05-15T02:20:18.508Z,68.41
2023-05-15T02:22:46.653Z,68.74
2023-05-15T02:25:16.401Z,68.94
2023-05-15T02:27:52.739Z,68.79
2023-05-15T02:30:36.019Z,68.38
2023-05-15T02:33:36.489Z,68.26
2023-05-15T02:36:16.093Z,68.66
2023-05-15T02:38:50.158Z,68.66
2023-05-15T02:41:18.929Z,68.70
2023-05-15T02:43:49.457Z,69.23
2023-05-15T02:46:20.510Z,68.78
2023-05-15T02:48:49.397Z,68.79
2023-05-15T02:51:17.552Z,68.89
2023-05-15T02:53:45.777Z,68.86
2023-05-15T02:56:13.779Z,68.79
2023-05-15T02:58:42.381Z,69.03
2023-05-15T03:01:10.596Z,68.29
2023-05-15T03:03:40.048Z,68.74
2023-05-15T03:06:08.460Z,68.57
2023-05-15T03:08:36.511Z,68.51
2023-05-15T03:11:04.506Z,68.42
2023-05-15T03:13:33.626Z,68.64
2023-05-15T03:16:01.653Z,68.76
2023-05-15T03:18:29.695Z,68.97
2023-05-15T03:20:59.039Z,68.45
2023-05-15T03:23:27.056Z,68.50
2023-05-15T03:25:55.085Z,68.67
2023-05-15T03:28:23.054Z,68.66
2023-05-15T03:30:51.066Z,68.82
2023-05-15T03:33:19.088Z,69.10
2023-05-15T03:35:47.072Z,69.14
2023-05-15T03:38:17.530Z,69.61
2023-05-15T03:40:45.513Z,69.30
2023-05-15T03:43:13.554Z,69.28
2023-05-15T03:45:42.240Z,69.21
2023-05-15T03:48:10.311Z,69.11
2023-05-15T03:50:39.233Z,68.81
2023-05-15T03:53:07.349Z,68.78
2023-05-15T03:55:37.119Z,68.45
2023-05-15T03:58:06.888Z,68.92
2023-05-15T04:00:35.262Z,68.80
2023-05-15T04:03:03.454Z,68.78
2023-05-15T04:05:31.614Z,69.18
2023-05-15T04:07:59.701Z,69.33
2023-05-15T04:10:27.828Z,69.27
2023-05-15T04:12:57.217Z,68.88
2023-05-15T04:15:26.988Z,69.27
2023-05-15T04:17:55.818Z,68.86
2023-05-15T04:20:25.883Z,68.98
2023-05-15T04:22:54.581Z,68.92
2023-05-15T04:25:24.436Z,69.24
2023-05-15T04:27:52.645Z,69.24
2023-05-15T04:30:22.019Z,69.14
2023-05-15T04:32:51.740Z,68.80
2023-05-15T04:35:19.961Z,69.02
2023-05-15T04:37:47.967Z,68.83
2023-05-15T04:40:16.582Z,68.68
2023-05-15T04:42:44.942Z,68.93
2023-05-15T04:45:13.070Z,69.31
2023-05-15T04:47:42.692Z,69.37
2023-05-15T04:50:11.512Z,69.16
2023-05-15T04:52:39.631Z,69.59
2023-05-15T04:55:09.408Z,69.28
2023-05-15T04:57:37.456Z,69.20
2023-05-15T05:00:10.223Z,68.90
2023-05-15T05:02:38.534Z,68.55
2023-05-15T05:05:09.436Z,68.70
2023-05-15T05:07:37.540Z,68.75
2023-05-15T05:10:06.807Z,68.88
2023-05-15T05:12:34.767Z,69.09
2023-05-15T05:15:02.869Z,68.55
2023-05-15T05:17:31.537Z,68.54
2023-05-15T05:19:59.530Z,68.67
2023-05-15T05:22:28.922Z,68.59
2023-05-15T05:24:57.475Z,68.72
2023-05-15T05:27:25.434Z,68.76
2023-05-15T05:29:54.188Z,68.81
2023-05-15T05:32:22.260Z,68.72
2023-05-15T05:34:50.558Z,69.06
2023-05-15T05:37:19.092Z,69.32
2023-05-15T05:39:48.448Z,69.70
2023-05-15T05:42:19.718Z,69.63
2023-05-15T05:44:47.711Z,69.36
2023-05-15T05:47:40.100Z,69.76
2023-05-15T05:50:11.757Z,69.40
2023-05-15T05:52:39.801Z,69.12
2023-05-15T05:55:11.188Z,68.87
2023-05-15T05:57:39.267Z,68.73
2023-05-15T06:00:16.613Z,68.77
2023-05-15T06:02:44.798Z,68.40
2023-05-15T06:05:12.999Z,68.33
2023-05-15T06:07:41.264Z,67.80
2023-05-15T06:10:12.863Z,67.68
2023-05-15T06:12:40.975Z,67.79
2023-05-15T06:15:09.855Z,67.31
2023-05-15T06:17:38.125Z,67.31
2023-05-15T06:20:10.012Z,67.38
2023-05-15T06:22:38.689Z,67.22
2023-05-15T06:25:13.520Z,67.17
2023-05-15T06:27:43.215Z,67.13
2023-05-15T06:30:13.105Z,67.26
2023-05-15T06:32:42.451Z,67.59
2023-05-15T06:35:11.535Z,66.88
2023-05-15T06:37:39.719Z,66.79
2023-05-15T06:40:12.868Z,66.90
2023-05-15T06:42:42.353Z,66.77
2023-05-15T06:45:14.733Z,66.47
2023-05-15T06:47:42.920Z,65.83
2023-05-15T06:50:11.898Z,65.49
2023-05-15T06:52:40.059Z,65.19
2023-05-15T06:55:10.550Z,65.11
2023-05-15T06:57:38.621Z,64.66
2023-05-15T07:00:09.979Z,64.22
2023-05-15T07:02:38.106Z,64.72
2023-05-15T07:05:08.743Z,64.52
2023-05-15T07:07:37.120Z,63.43
2023-05-15T07:10:06.095Z,63.34
2023-05-15T07:12:34.252Z,63.54
2023-05-15T07:15:02.486Z,62.74
2023-05-15T07:17:32.995Z,62.62
2023-05-15T07:20:01.202Z,62.14
2023-05-15T07:22:29.391Z,62.11
2023-05-15T07:24:57.500Z,62.59
2023-05-15T07:27:26.573Z,62.35
2023-05-15T07:29:54.864Z,61.80
2023-05-15T07:32:22.882Z,61.57
2023-05-15T07:34:53.426Z,61.39
2023-05-15T07:37:21.426Z,61.38
2023-05-15T07:39:49.533Z,61.01
2023-05-15T07:42:17.555Z,60.81
2023-05-15T07:44:47.919Z,60.90
2023-05-15T07:47:17.968Z,61.49
2023-05-15T07:49:45.984Z,61.69
2023-05-15T07:52:15.669Z,60.72
2023-05-15T07:54:43.665Z,60.93
2023-05-15T07:57:12.945Z,60.57
2023-05-15T07:59:41.396Z,60.95
2023-05-15T08:02:09.561Z,60.70
2023-05-15T08:04:37.887Z,60.35
2023-05-15T08:07:07.901Z,59.26
2023-05-15T08:09:37.351Z,60.74
2023-05-15T08:12:20.914Z,60.00
2023-05-15T08:14:50.468Z,58.68
2023-05-15T08:17:19.071Z,59.89
2023-05-15T08:19:47.686Z,60.20
2023-05-15T08:22:15.994Z,59.86
2023-05-15T08:24:45.732Z,59.53
2023-05-15T08:27:13.821Z,59.39
2023-05-15T08:29:41.967Z,58.12
2023-05-15T08:32:11.058Z,57.63
2023-05-15T08:34:39.500Z,57.29
2023-05-15T08:37:07.553Z,57.69
2023-05-15T08:39:35.619Z,58.51
2023-05-15T08:42:11.797Z,57.30
2023-05-15T08:44:40.792Z,58.37
2023-05-15T08:47:09.418Z,55.63
2023-05-15T08:49:51.819Z,58.31
2023-05-15T08:52:20.120Z,56.17
2023-05-15T08:54:49.038Z,56.89
2023-05-15T08:57:18.854Z,55.97
2023-05-15T08:59:47.774Z,56.70
2023-05-15T09:02:17.020Z,55.44
2023-05-15T09:04:45.666Z,56.18
2023-05-15T09:07:16.351Z,55.24
2023-05-15T09:09:45.944Z,55.30
2023-05-15T09:12:18.213Z,56.26
2023-05-15T09:14:47.302Z,56.05
2023-05-15T09:17:15.421Z,53.85
2023-05-15T09:19:44.294Z,53.86
2023-05-15T09:22:23.435Z,54.18
2023-05-15T09:24:53.132Z,55.10
2023-05-15T09:27:22.702Z,54.82
2023-05-15T09:29:56.268Z,55.22
2023-05-15T09:32:28.280Z,54.13
2023-05-15T09:34:56.625Z,55.55
2023-05-15T09:37:31.766Z,55.04
2023-05-15T09:40:15.589Z,53.93
2023-05-15T09:42:53.095Z,54.53
2023-05-15T09:45:22.346Z,52.18
2023-05-15T09:47:50.987Z,52.74
2023-05-15T09:50:23.811Z,50.45
2023-05-15T09:52:52.911Z,51.46
2023-05-15T09:55:25.135Z,52.93
2023-05-15T09:58:09.844Z,52.76
2023-05-15T10:00:47.980Z,50.89
2023-05-15T10:03:18.917Z,50.29
2023-05-15T10:05:47.323Z,50.13
2023-05-15T10:08:16.131Z,50.56
2023-05-15T10:10:45.323Z,49.61
2023-05-15T10:13:14.870Z,49.15
2023-05-15T10:15:43.587Z,49.60
2023-05-15T10:18:13.357Z,49.35
2023-05-15T10:20:41.598Z,48.93
2023-05-15T10:23:13.929Z,51.39
2023-05-15T10:25:47.716Z,49.95
2023-05-15T10:28:18.100Z,50.41
2023-05-15T10:30:47.278Z,50.47
2023-05-15T10:33:16.274Z,51.37
2023-05-15T10:35:45.389Z,49.55
2023-05-15T10:38:14.332Z,49.39
2023-05-15T10:40:42.593Z,48.81
2023-05-15T10:43:12.372Z,49.03
2023-05-15T10:45:42.684Z,48.53
2023-05-15T10:48:12.329Z,50.13
2023-05-15T10:50:40.746Z,49.38
2023-05-15T10:53:11.099Z,48.56
2023-05-15T10:55:39.193Z,49.62
2023-05-15T10:58:10.782Z,50.36
2023-05-15T11:00:45.870Z,48.65
2023-05-15T11:03:17.971Z,48.18
2023-05-15T11:06:08.612Z,47.20
2023-05-15T11:08:37.445Z,49.01
2023-05-15T11:11:05.636Z,48.50
2023-05-15T11:14:15.209Z,48.37
2023-05-15T11:17:04.943Z,50.35
2023-05-15T11:20:01.095Z,50.92
2023-05-15T11:22:33.208Z,48.39
2023-05-15T11:25:04.959Z,47.71
2023-05-15T11:27:40.248Z,47.41
2023-05-15T11:30:14.758Z,45.50
2023-05-15T11:32:57.303Z,45.22
2023-05-15T11:35:29.432Z,47.13
2023-05-15T11:37:59.953Z,47.83
2023-05-15T11:40:30.118Z,48.69
2023-05-15T11:43:21.030Z,48.55
2023-05-15T11:45:55.504Z,48.84
2023-05-15T11:48:32.295Z,46.61
2023-05-15T11:51:02.084Z,46.68
2023-05-15T11:53:31.262Z,46.77
2023-05-15T11:55:59.903Z,45.86
2023-05-15T11:58:28.196Z,45.47
2023-05-15T12:00:56.290Z,45.60
2023-05-15T12:03:28.717Z,45.57
2023-05-15T12:06:00.080Z,45.77
2023-05-15T12:08:54.706Z,45.59
2023-05-15T12:11:24.261Z,44.36
2023-05-15T12:13:54.920Z,43.81
2023-05-15T12:16:26.187Z,41.50
2023-05-15T12:18:58.836Z,44.16
2023-05-15T12:21:28.195Z,46.49
2023-05-15T12:24:07.079Z,44.44
2023-05-15T12:26:37.169Z,43.92
2023-05-15T12:29:06.202Z,43.22
2023-05-15T12:31:36.266Z,45.76
2023-05-15T12:34:08.855Z,42.64
2023-05-15T12:36:37.446Z,42.49
2023-05-15T12:39:09.140Z,44.03
2023-05-15T12:41:39.461Z,43.93
2023-05-15T12:44:07.653Z,45.29
2023-05-15T12:46:36.135Z,47.30
2023-05-15T12:49:04.235Z,43.20
2023-05-15T12:51:37.268Z,44.53
2023-05-15T12:54:05.556Z,46.54
2023-05-15T12:56:33.594Z,44.59
2023-05-15T12:59:01.726Z,44.70
2023-05-15T13:01:30.526Z,47.71
2023-05-15T13:03:59.410Z,47.60
2023-05-15T13:06:38.270Z,46.95
2023-05-15T13:09:12.495Z,46.89
2023-05-15T13:11:45.248Z,46.02
2023-05-15T13:14:17.611Z,46.93
2023-05-15T13:16:47.767Z,48.61
2023-05-15T13:19:17.437Z,48.38
2023-05-15T13:21:46.018Z,49.09
2023-05-15T13:24:15.912Z,49.07
2023-05-15T13:26:44.122Z,47.95
2023-05-15T13:29:12.266Z,48.38
2023-05-15T13:31:40.327Z,47.78
2023-05-15T13:34:08.419Z,47.05
2023-05-15T13:36:36.516Z,45.03
2023-05-15T13:39:05.275Z,45.72
2023-05-15T13:41:36.635Z,46.64
2023-05-15T13:44:04.981Z,46.75
2023-05-15T13:46:33.159Z,47.54
2023-05-15T13:49:01.722Z,48.54
2023-05-15T13:51:29.808Z,46.53
2023-05-15T13:53:57.857Z,46.01
2023-05-15T13:56:25.941Z,46.68
2023-05-15T13:58:55.490Z,47.16
2023-05-15T14:01:23.583Z,45.45
2023-05-15T14:03:51.776Z,46.98
2023-05-15T14:06:19.820Z,47.69
2023-05-15T14:08:47.834Z,47.25
2023-05-15T14:11:16.017Z,46.67
2023-05-15T14:13:44.055Z,46.60
2023-05-15T14:16:13.507Z,46.91
2023-05-15T14:18:41.583Z,48.06
2023-05-15T14:21:09.677Z,47.99
2023-05-15T14:23:37.709Z,47.18
2023-05-15T14:26:05.979Z,46.49
2023-05-15T14:28:34.135Z,46.56
2023-05-15T14:31:02.216Z,47.53
2023-05-15T14:33:31.746Z,46.84
2023-05-15T14:36:00.876Z,46.27
2023-05-15T14:38:28.946Z,47.28
2023-05-15T14:40:57.007Z,47.70
2023-05-15T14:43:25.801Z,46.34
2023-05-15T14:45:53.855Z,46.50
2023-05-15T14:48:21.902Z,46.43
2023-05-15T14:50:51.325Z,45.89
2023-05-15T14:53:19.369Z,47.05
2023-05-15T14:55:47.446Z,44.78
2023-05-15T14:58:16.326Z,45.22
2023-05-15T15:00:44.458Z,45.24
2023-05-15T15:03:12.579Z,46.25
2023-05-15T15:05:40.802Z,46.50
2023-05-15T15:08:11.663Z,46.00
2023-05-15T15:10:41.492Z,46.22
2023-05-15T15:13:10.625Z,48.15
2023-05-15T15:15:38.862Z,50.47
2023-05-15T15:18:07.215Z,52.21
2023-05-15T15:20:35.578Z,52.95
2023-05-15T15:23:05.168Z,52.26
2023-05-15T15:25:35.045Z,52.81
2023-05-15T15:28:03.581Z,53.75
2023-05-15T15:30:32.245Z,54.20
2023-05-15T15:33:01.100Z,55.66
2023-05-15T15:35:29.327Z,56.09
2023-05-15T15:37:57.536Z,56.52
2023-05-15T15:40:25.881Z,54.72
2023-05-15T15:42:55.677Z,54.07
2023-05-15T15:45:23.916Z,54.40
2023-05-15T15:47:52.013Z,54.39
2023-05-15T15:50:20.373Z,55.42
2023-05-15T15:52:49.294Z,56.30
2023-05-15T15:55:17.418Z,57.66
2023-05-15T15:57:45.494Z,57.82
2023-05-15T16:00:16.672Z,60.32
2023-05-15T16:02:44.845Z,60.28
2023-05-15T16:05:12.889Z,59.78
2023-05-15T16:07:40.918Z,60.48
2023-05-15T16:10:12.816Z,60.29
2023-05-15T16:12:42.448Z,58.84
2023-05-15T16:17:44.250Z,60.62
2023-05-15T16:20:13.149Z,63.29
2023-05-15T16:22:41.860Z,64.21
2023-05-15T16:25:11.094Z,64.24
2023-05-15T16:27:39.131Z,64.45
2023-05-15T16:30:11.536Z,63.37
2023-05-15T16:32:40.418Z,62.88
2023-05-15T16:35:10.594Z,63.81
2023-05-15T16:37:39.336Z,63.11
2023-05-15T16:40:09.755Z,63.12
2023-05-15T16:42:38.706Z,63.02
2023-05-15T16:45:10.014Z,62.84
2023-05-15T16:47:40.917Z,62.91
2023-05-15T16:50:11.482Z,63.50
2023-05-15T16:52:45.352Z,63.65
2023-05-15T16:55:16.293Z,63.28
2023-05-15T16:57:44.984Z,63.04
2023-05-15T17:00:22.824Z,62.26
2023-05-15T17:02:51.666Z,62.94
2023-05-15T17:05:21.224Z,63.82
2023-05-15T17:07:49.257Z,64.12
2023-05-15T17:10:17.545Z,63.95
2023-05-15T17:12:46.194Z,64.30
2023-05-15T17:15:14.394Z,64.04
2023-05-15T17:17:42.510Z,64.05
2023-05-15T17:20:12.591Z,63.80
2023-05-15T17:22:42.450Z,63.72
2023-05-15T17:25:11.174Z,63.69
2023-05-15T17:27:41.549Z,61.82
2023-05-15T17:30:11.528Z,60.74
2023-05-15T17:32:41.061Z,60.34
2023-05-15T17:35:10.372Z,62.92
2023-05-15T17:37:38.766Z,63.65
2023-05-15T17:40:10.038Z,64.43
2023-05-15T17:42:38.125Z,64.39
2023-05-15T17:45:07.542Z,63.62
2023-05-15T17:47:36.077Z,63.22
2023-05-15T17:50:04.367Z,63.61
2023-05-15T17:52:32.592Z,63.56
2023-05-15T17:55:00.647Z,63.25
2023-05-15T17:57:30.024Z,63.07
2023-05-15T17:59:58.021Z,62.58
2023-05-15T18:02:26.627Z,62.30
2023-05-15T18:04:54.740Z,62.19
2023-05-15T18:07:22.829Z,62.60
2023-05-15T18:09:51.150Z,62.35
2023-05-15T18:12:19.218Z,62.90
2023-05-15T18:14:48.629Z,63.04
2023-05-15T18:17:17.516Z,62.56
2023-05-15T18:19:45.568Z,62.84
2023-05-15T18:22:14.584Z,62.88
2023-05-15T18:24:42.580Z,63.04
2023-05-15T18:27:10.747Z,63.07
2023-05-15T18:29:38.782Z,63.05
2023-05-15T18:32:09.065Z,62.54
2023-05-15T18:34:37.202Z,62.84
2023-05-15T18:37:05.912Z,62.82
2023-05-15T18:39:33.938Z,62.89
2023-05-15T18:42:03.525Z,62.68
2023-05-15T18:44:32.337Z,62.37
2023-05-15T18:47:00.524Z,62.39
2023-05-15T18:49:30.616Z,63.05
2023-05-15T18:51:58.970Z,63.34
2023-05-15T18:54:27.070Z,63.61
2023-05-15T18:56:55.111Z,63.52
2023-05-15T18:59:23.361Z,64.12
2023-05-15T19:01:53.225Z,64.06
2023-05-15T19:04:21.588Z,64.14
2023-05-15T19:06:51.555Z,64.64
2023-05-15T19:09:20.510Z,64.69
2023-05-15T19:11:49.623Z,64.87
2023-05-15T19:14:18.538Z,65.45
2023-05-15T19:16:47.049Z,65.57
2023-05-15T19:19:15.752Z,66.16
2023-05-15T19:21:43.824Z,65.56
2023-05-15T19:24:13.188Z,65.47
2023-05-15T19:26:41.599Z,65.68
2023-05-15T19:29:09.748Z,66.25
2023-05-15T19:31:38.496Z,66.64
2023-05-15T19:34:06.667Z,66.67
2023-05-15T19:36:35.583Z,66.92
2023-05-15T19:39:03.725Z,67.08
2023-05-15T19:41:33.342Z,67.22
2023-05-15T19:44:02.461Z,67.28
2023-05-15T19:46:30.738Z,67.16
2023-05-15T19:48:58.884Z,67.66
2023-05-15T19:51:27.346Z,67.41
2023-05-15T19:53:56.618Z,67.48
2023-05-15T19:56:26.026Z,67.39
2023-05-15T19:58:55.624Z,67.41
2023-05-15T20:01:23.672Z,67.20
2023-05-15T20:03:51.893Z,67.35
2023-05-15T20:06:21.214Z,67.53
2023-05-15T20:08:50.201Z,67.32
2023-05-15T20:11:18.216Z,67.32
2023-05-15T20:13:46.640Z,67.26
2023-05-15T20:16:16.578Z,67.47
2023-05-15T20:18:47.849Z,67.77
2023-05-15T20:21:16.662Z,67.70
2023-05-15T20:23:44.715Z,67.40
2023-05-15T20:26:13.207Z,68.00
2023-05-15T20:28:43.708Z,68.54
2023-05-15T20:31:13.012Z,68.96
2023-05-15T20:33:42.580Z,68.71
2023-05-15T20:36:10.652Z,68.93
2023-05-15T20:38:39.457Z,68.62
2023-05-15T20:41:07.462Z,68.45
2023-05-15T20:43:35.542Z,68.71
2023-05-15T20:46:03.594Z,68.62
2023-05-15T20:48:31.847Z,68.92
2023-05-15T20:51:01.774Z,68.71
2023-05-15T20:53:29.833Z,69.24
2023-05-15T20:55:57.861Z,69.25
2023-05-15T20:58:25.977Z,69.32
2023-05-15T21:00:54.040Z,69.31
2023-05-15T21:03:22.560Z,68.98
2023-05-15T21:05:51.136Z,68.82
2023-05-15T21:08:20.735Z,68.83
2023-05-15T21:10:52.832Z,69.15
2023-05-15T21:13:20.947Z,70.36
2023-05-15T21:15:48.962Z,70.26
2023-05-15T21:18:18.530Z,70.25
2023-05-15T21:20:46.588Z,70.74
2023-05-15T21:23:14.918Z,70.42
2023-05-15T21:25:46.173Z,70.01
2023-05-15T21:28:14.491Z,69.99
2023-05-15T21:30:42.695Z,69.87
2023-05-15T21:33:10.890Z,70.36
2023-05-15T21:35:39.665Z,70.31
2023-05-15T21:38:07.706Z,70.20
2023-05-15T21:40:35.698Z,70.68
2023-05-15T21:43:08.717Z,70.37
2023-05-15T21:45:37.937Z,70.44
2023-05-15T21:48:06.284Z,70.57
2023-05-15T21:50:39.610Z,70.50
2023-05-15T21:53:09.509Z,70.21
2023-05-15T21:55:37.509Z,70.08
2023-05-15T21:58:07.295Z,69.80
2023-05-15T22:00:35.485Z,70.00
2023-05-15T22:03:04.542Z,69.95
2023-05-15T22:05:32.733Z,70.04
2023-05-15T22:08:06.901Z,69.84
2023-05-15T22:10:35.001Z,69.99
2023-05-15T22:13:04.215Z,69.99
2023-05-15T22:15:36.796Z,69.82
2023-05-15T22:18:06.388Z,69.78
2023-05-15T22:20:34.877Z,70.02
2023-05-15T22:23:07.305Z,70.00
2023-05-15T22:25:35.405Z,70.10
2023-05-15T22:28:28.314Z,69.70
2023-05-15T22:30:57.647Z,70.35
2023-05-15T22:33:25.921Z,70.08
2023-05-15T22:35:54.170Z,69.93
2023-05-15T22:38:22.500Z,70.33
2023-05-15T22:40:51.636Z,70.34
2023-05-15T22:43:19.823Z,70.34
2023-05-15T22:45:47.913Z,70.05
2023-05-15T22:48:17.487Z,70.09
2023-05-15T22:50:45.595Z,69.90
2023-05-15T22:53:13.751Z,70.16
2023-05-15T22:55:41.814Z,69.92
2023-05-15T22:58:09.907Z,70.11
2023-05-15T23:00:38.064Z,70.23
2023-05-15T23:03:06.198Z,69.72
2023-05-15T23:05:35.779Z,70.19
2023-05-15T23:08:03.784Z,70.39
2023-05-15T23:10:31.823Z,70.53
2023-05-15T23:12:59.825Z,70.18
2023-05-15T23:15:28.147Z,70.24
2023-05-15T23:17:56.129Z,70.38
2023-05-15T23:20:24.338Z,70.15
2023-05-15T23:22:53.878Z,69.67
2023-05-15T23:25:22.047Z,69.72
2023-05-15T23:27:51.191Z,69.61
2023-05-15T23:30:19.604Z,69.42
2023-05-15T23:32:47.844Z,69.28
2023-05-15T23:35:16.024Z,69.32
2023-05-15T23:37:44.410Z,68.89
2023-05-15T23:40:14.975Z,68.51
2023-05-15T23:42:43.099Z,68.51
2023-05-15T23:45:13.726Z,68.03
2023-05-15T23:47:41.916Z,68.04
2023-05-15T23:50:10.294Z,67.66
2023-05-15T23:52:38.368Z,67.36
2023-05-15T23:55:07.225Z,67.73
2023-05-15T23:57:36.642Z,67.88
